Accueil
METAR-TAF:

METAR-TAF

Aéroports :

Aéroport de Sibu

Sibu, Malaisie

latitude: 02-20N, longitude: 111-50E, altitude: 8 m

Observation

Le bulletin a été fait il y a 40 minutes, à 20:00 UTC
Vent calme
Température 24°C
Humidité 94%
Pression 1007 hPa
Visibilité 10 km ou plus
Nuages épars à une hauteur de 1700 ft

METAR: WBGS 242000Z 00000KT 9999 SCT017 24/23 Q1007

Heure: 04:40 (20:40 UTC)

Prévision

Le bulletin a été fait il y a 3 heures et 40 minutes, à 17:00 UTC
Prévision valable du 24 à 18 UTC au 25 à 18 UTC
Vent 3 kt de direction variable
Visibilité 10 km ou plus
Nuages épars à une hauteur de 1600 ft

TAF: WBGS 241700Z 2418/2518 VRB03KT 9999 SCT016

Observations et prévisions météorologiques de plus de 4000 aéroports (messages METAR et TAF).

Les stations disponibles sont représentées par des disques jaunes et rouges sur la carte.

Passer la souris dessus pour voir le nom de la station.

Cliquer dessus pour voir les observations et prévisions météorologiques.

Pour changer de carte: cliquez sur les boutons verts avec une croix noire pour zoomer, sur le bouton vert avec un tiret pour effectuer un zoom arrière, ou sur les flèches vertes pour les cartes adjacentes.


METAR-TAF: